sensor_id;sensor_type;location;lat;lon;timestamp;pressure;altitude;pressure_sealevel;temperature;humidity
58072;BME280;60383;46.626;18.866;2022-12-18T00:02:02;101879.38;;;-0.95;80.70
58072;BME280;60383;46.626;18.866;2022-12-18T00:04:29;101881.53;;;-1.06;81.07
58072;BME280;60383;46.626;18.866;2022-12-18T00:06:54;101884.06;;;-1.32;82.05
58072;BME280;60383;46.626;18.866;2022-12-18T00:09:20;101892.38;;;-1.39;83.43
58072;BME280;60383;46.626;18.866;2022-12-18T00:11:46;101889.25;;;-1.24;83.58
58072;BME280;60383;46.626;18.866;2022-12-18T00:14:12;101896.91;;;-1.41;83.18
58072;BME280;60383;46.626;18.866;2022-12-18T00:16:38;101907.53;;;-1.37;84.26
58072;BME280;60383;46.626;18.866;2022-12-18T00:19:04;101904.34;;;-1.20;82.62
58072;BME280;60383;46.626;18.866;2022-12-18T00:21:31;101921.44;;;-1.22;83.49
58072;BME280;60383;46.626;18.866;2022-12-18T00:23:58;101923.47;;;-1.31;83.28
58072;BME280;60383;46.626;18.866;2022-12-18T00:26:29;101927.25;;;-1.38;83.08
58072;BME280;60383;46.626;18.866;2022-12-18T00:28:58;101932.88;;;-1.47;83.88
58072;BME280;60383;46.626;18.866;2022-12-18T00:31:25;101934.00;;;-1.23;82.72
58072;BME280;60383;46.626;18.866;2022-12-18T00:33:52;101936.53;;;-1.48;83.71
58072;BME280;60383;46.626;18.866;2022-12-18T00:36:23;101940.81;;;-1.42;83.28
58072;BME280;60383;46.626;18.866;2022-12-18T00:38:49;101948.19;;;-1.49;84.19
58072;BME280;60383;46.626;18.866;2022-12-18T00:41:16;101953.44;;;-1.45;83.95
58072;BME280;60383;46.626;18.866;2022-12-18T00:44:03;101951.81;;;-1.19;83.28
58072;BME280;60383;46.626;18.866;2022-12-18T00:46:29;101942.06;;;-1.23;82.13
58072;BME280;60383;46.626;18.866;2022-12-18T00:48:54;101951.88;;;-1.53;83.58
58072;BME280;60383;46.626;18.866;2022-12-18T00:51:20;101954.44;;;-1.49;83.72
58072;BME280;60383;46.626;18.866;2022-12-18T00:53:45;101959.22;;;-1.60;84.23
58072;BME280;60383;46.626;18.866;2022-12-18T00:56:10;101978.84;;;-1.56;84.92
58072;BME280;60383;46.626;18.866;2022-12-18T00:58:36;101959.22;;;-1.27;83.61
58072;BME280;60383;46.626;18.866;2022-12-18T01:01:04;101964.03;;;-1.40;83.66
58072;BME280;60383;46.626;18.866;2022-12-18T01:03:29;101976.38;;;-1.66;83.82
58072;BME280;60383;46.626;18.866;2022-12-18T01:05:56;101975.63;;;-1.38;83.29
58072;BME280;60383;46.626;18.866;2022-12-18T01:08:21;101972.88;;;-1.35;82.96
58072;BME280;60383;46.626;18.866;2022-12-18T01:10:46;101984.50;;;-1.34;83.12
58072;BME280;60383;46.626;18.866;2022-12-18T01:13:12;101995.19;;;-1.31;82.67
58072;BME280;60383;46.626;18.866;2022-12-18T01:15:37;101997.16;;;-1.38;83.67
58072;BME280;60383;46.626;18.866;2022-12-18T01:18:03;102001.97;;;-1.51;83.81
58072;BME280;60383;46.626;18.866;2022-12-18T01:20:28;101997.16;;;-1.38;83.63
58072;BME280;60383;46.626;18.866;2022-12-18T01:22:54;101990.09;;;-1.42;82.60
58072;BME280;60383;46.626;18.866;2022-12-18T01:25:19;101996.91;;;-1.29;83.07
58072;BME280;60383;46.626;18.866;2022-12-18T01:27:44;102002.75;;;-1.46;83.04
58072;BME280;60383;46.626;18.866;2022-12-18T01:30:10;102002.00;;;-1.19;82.65
58072;BME280;60383;46.626;18.866;2022-12-18T01:32:37;102001.97;;;-1.18;81.72
58072;BME280;60383;46.626;18.866;2022-12-18T01:35:02;101996.06;;;-1.31;82.60
58072;BME280;60383;46.626;18.866;2022-12-18T01:37:28;101997.88;;;-1.31;82.33
58072;BME280;60383;46.626;18.866;2022-12-18T01:39:54;101996.63;;;-1.19;81.89
58072;BME280;60383;46.626;18.866;2022-12-18T01:42:19;101996.09;;;-1.32;82.71
58072;BME280;60383;46.626;18.866;2022-12-18T01:50:18;102002.06;;;-1.21;81.52
58072;BME280;60383;46.626;18.866;2022-12-18T01:52:50;102008.44;;;-1.25;82.02
58072;BME280;60383;46.626;18.866;2022-12-18T01:55:20;102016.34;;;-1.19;81.99
58072;BME280;60383;46.626;18.866;2022-12-18T01:57:47;102019.22;;;-1.26;82.24
58072;BME280;60383;46.626;18.866;2022-12-18T02:00:18;102023.28;;;-1.43;83.19
58072;BME280;60383;46.626;18.866;2022-12-18T02:02:46;102018.25;;;-1.22;81.66
58072;BME280;60383;46.626;18.866;2022-12-18T02:05:15;102020.88;;;-1.21;81.57
58072;BME280;60383;46.626;18.866;2022-12-18T02:10:27;102031.41;;;-1.46;82.22
58072;BME280;60383;46.626;18.866;2022-12-18T02:15:42;102028.88;;;-1.19;81.82
58072;BME280;60383;46.626;18.866;2022-12-18T02:18:21;102026.25;;;-1.21;81.51
58072;BME280;60383;46.626;18.866;2022-12-18T02:26:27;102045.50;;;-1.71;82.66
58072;BME280;60383;46.626;18.866;2022-12-18T02:29:11;102058.72;;;-1.63;82.11
58072;BME280;60383;46.626;18.866;2022-12-18T02:31:48;102055.84;;;-1.91;83.91
58072;BME280;60383;46.626;18.866;2022-12-18T02:34:16;102058.28;;;-1.81;84.40
58072;BME280;60383;46.626;18.866;2022-12-18T02:36:44;102064.00;;;-1.96;84.55
58072;BME280;60383;46.626;18.866;2022-12-18T02:39:12;102064.50;;;-1.80;84.59
58072;BME280;60383;46.626;18.866;2022-12-18T02:41:39;102067.66;;;-1.99;84.32
58072;BME280;60383;46.626;18.866;2022-12-18T02:44:11;102072.78;;;-1.88;84.08
58072;BME280;60383;46.626;18.866;2022-12-18T02:46:40;102061.41;;;-1.63;83.80
58072;BME280;60383;46.626;18.866;2022-12-18T02:57:58;102078.16;;;-1.53;82.60
58072;BME280;60383;46.626;18.866;2022-12-18T03:00:48;102078.28;;;-1.56;81.78
58072;BME280;60383;46.626;18.866;2022-12-18T03:03:22;102085.28;;;-1.87;82.53
58072;BME280;60383;46.626;18.866;2022-12-18T03:08:24;102092.03;;;-1.70;83.36
58072;BME280;60383;46.626;18.866;2022-12-18T03:11:06;102090.59;;;-1.85;83.34
58072;BME280;60383;46.626;18.866;2022-12-18T03:13:36;102088.41;;;-2.07;84.10
58072;BME280;60383;46.626;18.866;2022-12-18T03:16:05;102098.44;;;-2.14;84.83
58072;BME280;60383;46.626;18.866;2022-12-18T03:18:42;102104.63;;;-2.10;84.80
58072;BME280;60383;46.626;18.866;2022-12-18T03:21:11;102110.03;;;-2.13;85.18
58072;BME280;60383;46.626;18.866;2022-12-18T03:23:49;102123.50;;;-2.15;84.68
58072;BME280;60383;46.626;18.866;2022-12-18T03:26:19;102126.34;;;-2.21;84.90
58072;BME280;60383;46.626;18.866;2022-12-18T03:28:54;102107.97;;;-2.00;84.51
58072;BME280;60383;46.626;18.866;2022-12-18T03:31:23;102107.69;;;-1.88;84.03
58072;BME280;60383;46.626;18.866;2022-12-18T03:33:52;102104.94;;;-1.86;83.75
58072;BME280;60383;46.626;18.866;2022-12-18T03:36:18;102115.94;;;-1.97;84.41
58072;BME280;60383;46.626;18.866;2022-12-18T03:38:44;102119.97;;;-2.17;84.96
58072;BME280;60383;46.626;18.866;2022-12-18T03:41:18;102123.31;;;-2.07;84.26
58072;BME280;60383;46.626;18.866;2022-12-18T03:46:33;102130.25;;;-2.37;85.57
58072;BME280;60383;46.626;18.866;2022-12-18T03:49:11;102141.16;;;-2.45;85.67
58072;BME280;60383;46.626;18.866;2022-12-18T03:51:43;102142.28;;;-2.57;86.71
58072;BME280;60383;46.626;18.866;2022-12-18T03:54:14;102145.84;;;-2.55;87.02
58072;BME280;60383;46.626;18.866;2022-12-18T03:56:44;102144.88;;;-2.52;86.97
58072;BME280;60383;46.626;18.866;2022-12-18T03:59:13;102144.88;;;-2.52;86.99
58072;BME280;60383;46.626;18.866;2022-12-18T04:01:44;102141.00;;;-2.37;87.06
58072;BME280;60383;46.626;18.866;2022-12-18T04:04:12;102154.13;;;-2.23;86.12
58072;BME280;60383;46.626;18.866;2022-12-18T04:06:39;102163.28;;;-2.34;86.23
58072;BME280;60383;46.626;18.866;2022-12-18T04:09:06;102178.84;;;-2.07;86.01
58072;BME280;60383;46.626;18.866;2022-12-18T04:11:32;102163.47;;;-1.99;85.57
58072;BME280;60383;46.626;18.866;2022-12-18T04:13:57;102175.16;;;-2.03;85.74
58072;BME280;60383;46.626;18.866;2022-12-18T04:16:27;102166.94;;;-1.96;85.81
58072;BME280;60383;46.626;18.866;2022-12-18T04:18:53;102171.53;;;-2.01;85.00
58072;BME280;60383;46.626;18.866;2022-12-18T04:21:19;102176.75;;;-1.95;84.87
58072;BME280;60383;46.626;18.866;2022-12-18T04:23:44;102176.88;;;-1.99;85.18
58072;BME280;60383;46.626;18.866;2022-12-18T04:26:10;102187.69;;;-2.02;85.54
58072;BME280;60383;46.626;18.866;2022-12-18T04:28:35;102192.69;;;-1.85;85.47
58072;BME280;60383;46.626;18.866;2022-12-18T04:31:01;102177.13;;;-2.12;85.07
58072;BME280;60383;46.626;18.866;2022-12-18T04:33:26;102182.47;;;-2.10;85.75
58072;BME280;60383;46.626;18.866;2022-12-18T04:35:52;102181.59;;;-2.11;85.37
58072;BME280;60383;46.626;18.866;2022-12-18T04:38:17;102191.69;;;-2.22;86.29
58072;BME280;60383;46.626;18.866;2022-12-18T04:40:43;102199.66;;;-2.19;86.29
58072;BME280;60383;46.626;18.866;2022-12-18T04:43:08;102198.81;;;-2.21;86.27
58072;BME280;60383;46.626;18.866;2022-12-18T04:45:34;102212.19;;;-2.19;86.60
58072;BME280;60383;46.626;18.866;2022-12-18T04:48:01;102203.09;;;-2.12;86.12
58072;BME280;60383;46.626;18.866;2022-12-18T04:50:27;102210.22;;;-2.10;86.19
58072;BME280;60383;46.626;18.866;2022-12-18T04:52:52;102213.25;;;-2.27;85.36
58072;BME280;60383;46.626;18.866;2022-12-18T04:55:18;102210.56;;;-2.27;85.67
58072;BME280;60383;46.626;18.866;2022-12-18T04:57:43;102217.38;;;-2.55;86.29
58072;BME280;60383;46.626;18.866;2022-12-18T05:00:10;102218.34;;;-2.60;86.82
58072;BME280;60383;46.626;18.866;2022-12-18T05:02:35;102215.78;;;-2.66;87.26
58072;BME280;60383;46.626;18.866;2022-12-18T05:05:02;102219.06;;;-2.50;nan
58072;BME280;60383;46.626;18.866;2022-12-18T05:07:28;102222.41;;;-2.37;86.04
58072;BME280;60383;46.626;18.866;2022-12-18T05:09:53;102224.41;;;-2.48;86.35
58072;BME280;60383;46.626;18.866;2022-12-18T05:12:19;102218.25;;;-2.53;86.02
58072;BME280;60383;46.626;18.866;2022-12-18T05:14:44;102223.59;;;-2.53;86.47
58072;BME280;60383;46.626;18.866;2022-12-18T05:17:10;102222.41;;;-2.38;85.80
58072;BME280;60383;46.626;18.866;2022-12-18T05:19:38;102225.38;;;-2.52;85.92
58072;BME280;60383;46.626;18.866;2022-12-18T05:22:03;102232.56;;;-2.54;86.27
58072;BME280;60383;46.626;18.866;2022-12-18T05:24:29;102234.16;;;-2.44;86.31
58072;BME280;60383;46.626;18.866;2022-12-18T05:26:54;102237.44;;;-2.28;85.07
58072;BME280;60383;46.626;18.866;2022-12-18T05:29:20;102241.44;;;-2.05;83.70
58072;BME280;60383;46.626;18.866;2022-12-18T05:31:45;102238.56;;;-1.96;82.43
58072;BME280;60383;46.626;18.866;2022-12-18T05:34:10;102247.25;;;-1.83;82.57
58072;BME280;60383;46.626;18.866;2022-12-18T05:36:36;102249.94;;;-1.83;81.66
58072;BME280;60383;46.626;18.866;2022-12-18T05:39:01;102242.81;;;-1.84;82.10
58072;BME280;60383;46.626;18.866;2022-12-18T05:41:27;102243.88;;;-1.93;82.63
58072;BME280;60383;46.626;18.866;2022-12-18T05:43:52;102245.28;;;-2.17;83.42
58072;BME280;60383;46.626;18.866;2022-12-18T05:46:18;102241.56;;;-2.12;82.82
58072;BME280;60383;46.626;18.866;2022-12-18T05:48:44;102245.75;;;-2.42;83.73
58072;BME280;60383;46.626;18.866;2022-12-18T05:51:15;102249.03;;;-2.76;85.22
58072;BME280;60383;46.626;18.866;2022-12-18T05:53:41;102260.78;;;-2.82;86.19
58072;BME280;60383;46.626;18.866;2022-12-18T05:56:09;102258.94;;;-2.78;86.49
58072;BME280;60383;46.626;18.866;2022-12-18T05:58:35;102266.13;;;-2.80;86.69
58072;BME280;60383;46.626;18.866;2022-12-18T06:01:26;102267.81;;;-2.76;87.01
58072;BME280;60383;46.626;18.866;2022-12-18T06:03:52;102273.97;;;-2.71;86.64
58072;BME280;60383;46.626;18.866;2022-12-18T06:06:23;102277.53;;;-2.69;86.13
58072;BME280;60383;46.626;18.866;2022-12-18T06:08:49;102281.66;;;-2.49;85.10
58072;BME280;60383;46.626;18.866;2022-12-18T06:11:20;102285.94;;;-2.39;84.44
58072;BME280;60383;46.626;18.866;2022-12-18T06:13:46;102282.47;;;-2.46;84.50
58072;BME280;60383;46.626;18.866;2022-12-18T06:16:14;102289.97;;;-2.63;84.78
58072;BME280;60383;46.626;18.866;2022-12-18T06:18:40;102285.34;;;-2.55;85.25
58072;BME280;60383;46.626;18.866;2022-12-18T06:21:05;102286.00;;;-2.41;84.36
58072;BME280;60383;46.626;18.866;2022-12-18T06:23:31;102291.63;;;-2.56;84.43
58072;BME280;60383;46.626;18.866;2022-12-18T06:25:56;102284.22;;;-2.43;86.22
58072;BME280;60383;46.626;18.866;2022-12-18T06:28:22;102299.38;;;-2.39;86.06
58072;BME280;60383;46.626;18.866;2022-12-18T06:30:48;102307.16;;;-2.23;85.75
58072;BME280;60383;46.626;18.866;2022-12-18T06:33:15;102309.63;;;-2.14;85.09
58072;BME280;60383;46.626;18.866;2022-12-18T06:35:41;102315.28;;;-2.30;82.89
58072;BME280;60383;46.626;18.866;2022-12-18T06:38:07;102312.84;;;-2.42;83.33
58072;BME280;60383;46.626;18.866;2022-12-18T06:40:33;102321.59;;;-2.32;83.81
58072;BME280;60383;46.626;18.866;2022-12-18T06:42:58;102325.81;;;-2.19;83.11
58072;BME280;60383;46.626;18.866;2022-12-18T06:45:23;102323.78;;;-2.04;82.51
58072;BME280;60383;46.626;18.866;2022-12-18T06:47:49;102327.88;;;-2.32;82.80
58072;BME280;60383;46.626;18.866;2022-12-18T06:50:15;102331.41;;;-1.83;82.35
58072;BME280;60383;46.626;18.866;2022-12-18T06:52:40;102335.22;;;-1.49;81.50
58072;BME280;60383;46.626;18.866;2022-12-18T06:55:07;102344.81;;;-1.39;80.25
58072;BME280;60383;46.626;18.866;2022-12-18T06:57:33;102341.81;;;-1.23;79.54
58072;BME280;60383;46.626;18.866;2022-12-18T06:59:59;102342.28;;;-1.06;78.02
58072;BME280;60383;46.626;18.866;2022-12-18T07:02:25;102341.84;;;-0.86;77.20
58072;BME280;60383;46.626;18.866;2022-12-18T07:04:50;102345.56;;;-0.55;75.40
58072;BME280;60383;46.626;18.866;2022-12-18T07:07:15;102349.81;;;-0.45;75.19
58072;BME280;60383;46.626;18.866;2022-12-18T07:09:41;102356.28;;;-0.18;73.95
58072;BME280;60383;46.626;18.866;2022-12-18T07:12:06;102357.34;;;0.10;75.34
58072;BME280;60383;46.626;18.866;2022-12-18T07:14:33;102360.19;;;0.37;73.68
58072;BME280;60383;46.626;18.866;2022-12-18T07:16:58;102371.63;;;0.45;73.19
58072;BME280;60383;46.626;18.866;2022-12-18T07:19:24;102365.91;;;0.56;71.08
58072;BME280;60383;46.626;18.866;2022-12-18T07:21:50;102373.13;;;0.55;70.67
58072;BME280;60383;46.626;18.866;2022-12-18T07:24:15;102381.16;;;1.45;67.69
58072;BME280;60383;46.626;18.866;2022-12-18T07:26:41;102385.41;;;2.06;65.42
58072;BME280;60383;46.626;18.866;2022-12-18T07:29:06;102378.50;;;2.71;62.10
58072;BME280;60383;46.626;18.866;2022-12-18T07:31:32;102385.56;;;2.01;64.21
58072;BME280;60383;46.626;18.866;2022-12-18T07:33:57;102382.09;;;2.23;63.52
58072;BME280;60383;46.626;18.866;2022-12-18T07:36:23;102403.31;;;2.59;62.92
58072;BME280;60383;46.626;18.866;2022-12-18T07:38:49;102402.16;;;2.66;63.03
58072;BME280;60383;46.626;18.866;2022-12-18T07:41:15;102406.44;;;2.96;62.58
58072;BME280;60383;46.626;18.866;2022-12-18T07:43:41;102409.75;;;3.04;60.32
58072;BME280;60383;46.626;18.866;2022-12-18T07:46:08;102414.19;;;4.95;56.10
58072;BME280;60383;46.626;18.866;2022-12-18T07:48:34;102414.53;;;5.64;52.71
58072;BME280;60383;46.626;18.866;2022-12-18T07:51:00;102414.25;;;5.32;53.55
58072;BME280;60383;46.626;18.866;2022-12-18T07:53:26;102416.97;;;4.14;55.87
58072;BME280;60383;46.626;18.866;2022-12-18T07:55:57;102425.22;;;4.11;57.05
58072;BME280;60383;46.626;18.866;2022-12-18T07:58:22;102438.78;;;4.32;56.59
58072;BME280;60383;46.626;18.866;2022-12-18T08:00:48;102446.94;;;5.31;54.36
58072;BME280;60383;46.626;18.866;2022-12-18T08:03:13;102436.47;;;6.50;50.15
58072;BME280;60383;46.626;18.866;2022-12-18T08:05:38;102440.78;;;6.19;51.04
58072;BME280;60383;46.626;18.866;2022-12-18T08:08:04;102436.25;;;6.71;49.36
58072;BME280;60383;46.626;18.866;2022-12-18T08:10:29;102443.81;;;7.79;46.51
58072;BME280;60383;46.626;18.866;2022-12-18T08:12:55;102445.19;;;8.33;45.72
58072;BME280;60383;46.626;18.866;2022-12-18T08:15:20;102455.25;;;8.32;45.25
58072;BME280;60383;46.626;18.866;2022-12-18T08:17:46;102455.75;;;8.99;42.69
58072;BME280;60383;46.626;18.866;2022-12-18T08:20:11;102459.16;;;8.43;43.64
58072;BME280;60383;46.626;18.866;2022-12-18T08:22:39;102469.97;;;7.35;45.88
58072;BME280;60383;46.626;18.866;2022-12-18T08:25:05;102481.91;;;5.94;49.46
58072;BME280;60383;46.626;18.866;2022-12-18T08:27:30;102491.00;;;5.18;51.21
58072;BME280;60383;46.626;18.866;2022-12-18T08:29:57;102501.97;;;5.17;51.46
58072;BME280;60383;46.626;18.866;2022-12-18T08:32:23;102494.94;;;4.71;53.26
58072;BME280;60383;46.626;18.866;2022-12-18T08:34:48;102496.06;;;5.07;52.04
58072;BME280;60383;46.626;18.866;2022-12-18T08:37:13;102494.41;;;5.42;52.01
58072;BME280;60383;46.626;18.866;2022-12-18T08:39:39;102484.56;;;6.67;49.61
58072;BME280;60383;46.626;18.866;2022-12-18T08:42:04;102487.88;;;7.24;48.26
58072;BME280;60383;46.626;18.866;2022-12-18T08:44:48;102495.47;;;7.34;47.10
58072;BME280;60383;46.626;18.866;2022-12-18T08:47:14;102489.06;;;7.67;47.00
58072;BME280;60383;46.626;18.866;2022-12-18T08:49:39;102495.31;;;7.70;45.37
58072;BME280;60383;46.626;18.866;2022-12-18T08:52:05;102494.50;;;7.67;46.81
58072;BME280;60383;46.626;18.866;2022-12-18T08:54:31;102490.56;;;7.57;46.65
58072;BME280;60383;46.626;18.866;2022-12-18T08:56:56;102484.00;;;7.28;48.44
58072;BME280;60383;46.626;18.866;2022-12-18T08:59:22;102492.31;;;7.58;47.06
58072;BME280;60383;46.626;18.866;2022-12-18T09:01:49;102486.31;;;7.99;46.40
58072;BME280;60383;46.626;18.866;2022-12-18T09:04:15;102486.09;;;8.19;44.48
58072;BME280;60383;46.626;18.866;2022-12-18T09:06:40;102480.50;;;8.06;45.49
58072;BME280;60383;46.626;18.866;2022-12-18T09:09:06;102490.03;;;7.82;45.94
58072;BME280;60383;46.626;18.866;2022-12-18T09:11:34;102482.13;;;7.62;46.15
58072;BME280;60383;46.626;18.866;2022-12-18T09:14:00;102478.16;;;7.67;46.15
58072;BME280;60383;46.626;18.866;2022-12-18T09:16:27;102481.03;;;7.48;46.48
58072;BME280;60383;46.626;18.866;2022-12-18T09:18:55;102477.31;;;6.84;46.12
58072;BME280;60383;46.626;18.866;2022-12-18T09:21:25;102491.38;;;7.10;47.60
58072;BME280;60383;46.626;18.866;2022-12-18T09:23:52;102496.88;;;6.57;48.42
58072;BME280;60383;46.626;18.866;2022-12-18T09:26:17;102491.06;;;6.98;48.07
58072;BME280;60383;46.626;18.866;2022-12-18T09:28:43;102484.91;;;7.28;47.14
58072;BME280;60383;46.626;18.866;2022-12-18T09:31:10;102486.53;;;7.15;47.72
58072;BME280;60383;46.626;18.866;2022-12-18T09:33:36;102488.69;;;7.42;47.70
58072;BME280;60383;46.626;18.866;2022-12-18T09:36:08;102473.91;;;7.46;47.32
58072;BME280;60383;46.626;18.866;2022-12-18T09:38:35;102475.31;;;7.21;47.54
58072;BME280;60383;46.626;18.866;2022-12-18T09:42:01;102468.94;;;7.04;48.50
58072;BME280;60383;46.626;18.866;2022-12-18T09:44:24;102473.81;;;7.31;49.12
58072;BME280;60383;46.626;18.866;2022-12-18T09:46:58;102470.56;;;7.73;47.18
58072;BME280;60383;46.626;18.866;2022-12-18T09:49:28;102464.41;;;7.69;47.10
58072;BME280;60383;46.626;18.866;2022-12-18T09:52:32;102460.69;;;6.72;48.65
58072;BME280;60383;46.626;18.866;2022-12-18T09:55:03;102466.97;;;7.40;47.65
58072;BME280;60383;46.626;18.866;2022-12-18T09:57:33;102463.44;;;8.02;46.21
58072;BME280;60383;46.626;18.866;2022-12-18T10:00:22;102461.41;;;8.36;45.53
58072;BME280;60383;46.626;18.866;2022-12-18T10:02:48;102454.50;;;8.45;45.20
58072;BME280;60383;46.626;18.866;2022-12-18T10:05:19;102452.03;;;8.71;43.79
58072;BME280;60383;46.626;18.866;2022-12-18T10:07:58;102462.63;;;8.00;45.54
58072;BME280;60383;46.626;18.866;2022-12-18T10:10:47;102458.53;;;8.23;44.66
58072;BME280;60383;46.626;18.866;2022-12-18T10:13:33;102462.53;;;8.32;44.79
58072;BME280;60383;46.626;18.866;2022-12-18T10:16:16;102461.78;;;7.35;45.24
58072;BME280;60383;46.626;18.866;2022-12-18T10:21:37;102457.56;;;7.30;45.85
58072;BME280;60383;46.626;18.866;2022-12-18T10:26:48;102460.63;;;7.88;45.73
58072;BME280;60383;46.626;18.866;2022-12-18T10:29:16;102472.25;;;7.75;47.40
58072;BME280;60383;46.626;18.866;2022-12-18T10:31:41;102463.88;;;7.78;46.74
58072;BME280;60383;46.626;18.866;2022-12-18T10:34:12;102458.59;;;7.11;47.04
58072;BME280;60383;46.626;18.866;2022-12-18T10:36:37;102452.56;;;8.17;47.18
58072;BME280;60383;46.626;18.866;2022-12-18T10:39:21;102444.13;;;8.36;44.10
58072;BME280;60383;46.626;18.866;2022-12-18T10:41:49;102443.81;;;8.26;44.68
58072;BME280;60383;46.626;18.866;2022-12-18T10:44:22;102453.34;;;7.72;46.23
58072;BME280;60383;46.626;18.866;2022-12-18T10:47:03;102456.66;;;7.77;46.82
58072;BME280;60383;46.626;18.866;2022-12-18T10:49:31;102462.25;;;8.06;46.21
58072;BME280;60383;46.626;18.866;2022-12-18T10:52:19;102452.44;;;7.88;45.18
58072;BME280;60383;46.626;18.866;2022-12-18T10:55:01;102457.38;;;7.65;46.96
58072;BME280;60383;46.626;18.866;2022-12-18T10:57:39;102459.59;;;7.74;45.99
58072;BME280;60383;46.626;18.866;2022-12-18T11:00:24;102460.44;;;7.91;45.26
58072;BME280;60383;46.626;18.866;2022-12-18T11:02:50;102468.34;;;7.95;45.49
58072;BME280;60383;46.626;18.866;2022-12-18T11:07:53;102458.44;;;7.78;45.90
58072;BME280;60383;46.626;18.866;2022-12-18T11:10:31;102462.75;;;7.34;47.22
58072;BME280;60383;46.626;18.866;2022-12-18T11:13:14;102454.91;;;7.12;47.22
58072;BME280;60383;46.626;18.866;2022-12-18T11:15:41;102460.25;;;7.14;48.18
58072;BME280;60383;46.626;18.866;2022-12-18T11:18:16;102458.38;;;6.47;49.24
58072;BME280;60383;46.626;18.866;2022-12-18T11:20:50;102457.97;;;6.72;48.28
58072;BME280;60383;46.626;18.866;2022-12-18T11:23:19;102457.81;;;6.76;48.86
58072;BME280;60383;46.626;18.866;2022-12-18T11:25:57;102452.94;;;6.65;49.90
58072;BME280;60383;46.626;18.866;2022-12-18T11:28:39;102450.78;;;6.54;49.42
58072;BME280;60383;46.626;18.866;2022-12-18T11:33:43;102457.97;;;6.37;50.23
58072;BME280;60383;46.626;18.866;2022-12-18T11:36:12;102461.53;;;6.39;49.79
58072;BME280;60383;46.626;18.866;2022-12-18T11:38:40;102455.03;;;6.25;49.68
58072;BME280;60383;46.626;18.866;2022-12-18T11:43:51;102448.31;;;5.95;50.48
58072;BME280;60383;46.626;18.866;2022-12-18T11:46:33;102449.56;;;5.70;51.57
58072;BME280;60383;46.626;18.866;2022-12-18T11:51:38;102450.25;;;5.93;51.97
58072;BME280;60383;46.626;18.866;2022-12-18T11:54:12;102443.63;;;5.99;51.83
58072;BME280;60383;46.626;18.866;2022-12-18T11:56:53;102442.47;;;5.85;51.84
58072;BME280;60383;46.626;18.866;2022-12-18T11:59:33;102443.69;;;5.80;52.06
58072;BME280;60383;46.626;18.866;2022-12-18T12:07:57;102439.69;;;5.12;53.27
58072;BME280;60383;46.626;18.866;2022-12-18T12:16:15;102436.47;;;5.23;55.10
58072;BME280;60383;46.626;18.866;2022-12-18T12:19:50;102432.72;;;5.44;54.47
58072;BME280;60383;46.626;18.866;2022-12-18T12:22:22;102422.50;;;5.31;54.08
58072;BME280;60383;46.626;18.866;2022-12-18T12:25:05;102426.63;;;5.20;55.30
58072;BME280;60383;46.626;18.866;2022-12-18T12:36:12;102428.47;;;4.61;57.56
58072;BME280;60383;46.626;18.866;2022-12-18T12:38:55;102438.22;;;4.65;57.24
58072;BME280;60383;46.626;18.866;2022-12-18T12:41:25;102431.22;;;4.80;57.36
58072;BME280;60383;46.626;18.866;2022-12-18T12:44:16;102439.50;;;4.77;57.85
58072;BME280;60383;46.626;18.866;2022-12-18T12:46:48;102439.59;;;4.55;58.28
58072;BME280;60383;46.626;18.866;2022-12-18T12:49:21;102441.94;;;4.83;57.94
58072;BME280;60383;46.626;18.866;2022-12-18T12:51:56;102446.16;;;5.09;56.79
58072;BME280;60383;46.626;18.866;2022-12-18T12:54:26;102448.56;;;4.96;56.55
58072;BME280;60383;46.626;18.866;2022-12-18T13:00:06;102453.94;;;4.77;56.97
58072;BME280;60383;46.626;18.866;2022-12-18T13:02:39;102454.97;;;4.75;57.94
58072;BME280;60383;46.626;18.866;2022-12-18T13:07:45;102451.78;;;4.65;57.55
58072;BME280;60383;46.626;18.866;2022-12-18T13:13:08;102463.94;;;4.36;58.48
58072;BME280;60383;46.626;18.866;2022-12-18T13:16:07;102459.38;;;4.36;59.08
58072;BME280;60383;46.626;18.866;2022-12-18T13:18:33;102465.53;;;4.41;58.71
58072;BME280;60383;46.626;18.866;2022-12-18T13:31:02;102482.75;;;4.61;58.57
58072;BME280;60383;46.626;18.866;2022-12-18T13:41:39;102491.44;;;4.48;59.10
58072;BME280;60383;46.626;18.866;2022-12-18T13:44:31;102489.66;;;4.47;59.21
58072;BME280;60383;46.626;18.866;2022-12-18T13:46:58;102486.13;;;4.25;59.51
58072;BME280;60383;46.626;18.866;2022-12-18T13:49:35;102486.88;;;4.28;59.77
58072;BME280;60383;46.626;18.866;2022-12-18T13:52:02;102478.72;;;4.28;59.37
58072;BME280;60383;46.626;18.866;2022-12-18T13:54:40;102484.19;;;4.06;60.51
58072;BME280;60383;46.626;18.866;2022-12-18T13:59:53;102483.38;;;3.60;62.47
58072;BME280;60383;46.626;18.866;2022-12-18T14:02:27;102482.81;;;3.51;63.22
58072;BME280;60383;46.626;18.866;2022-12-18T14:04:54;102491.44;;;3.83;62.80
58072;BME280;60383;46.626;18.866;2022-12-18T14:07:20;102497.03;;;3.57;63.30
58072;BME280;60383;46.626;18.866;2022-12-18T14:09:50;102505.75;;;3.65;63.25
58072;BME280;60383;46.626;18.866;2022-12-18T14:12:19;102508.72;;;3.35;63.57
58072;BME280;60383;46.626;18.866;2022-12-18T14:15:14;102510.59;;;3.33;64.62
58072;BME280;60383;46.626;18.866;2022-12-18T14:17:44;102504.03;;;3.16;65.41
58072;BME280;60383;46.626;18.866;2022-12-18T14:20:17;102508.72;;;2.62;67.41
58072;BME280;60383;46.626;18.866;2022-12-18T14:22:47;102498.31;;;3.00;66.10
58072;BME280;60383;46.626;18.866;2022-12-18T14:25:20;102506.06;;;2.61;67.38
58072;BME280;60383;46.626;18.866;2022-12-18T14:30:41;102510.78;;;2.29;69.59
58072;BME280;60383;46.626;18.866;2022-12-18T14:35:35;102514.06;;;2.38;70.19
58072;BME280;60383;46.626;18.866;2022-12-18T14:38:21;102533.50;;;1.68;72.95
58072;BME280;60383;46.626;18.866;2022-12-18T14:40:47;102533.31;;;1.74;73.18